Time;durP1;ratioP1;P1;durP2;ratioP2;P2;SDS_P1;SDS_P2;PMS_P1;PMS_P2;Temp;Humidity;BMP_temperature;BMP_pressure;BME280_temperature;BME280_humidity;BME280_pressure;Samples;Min_cycle;Max_cycle;Signal;HPM_P1;HPM_P2
2023/06/17 00:00:22;;;;;;;12.77;8.45;;;14.20;74.10;;;;;;5040689;28;20418;-64
2023/06/17 00:02:48;;;;;;;15.13;8.88;;;14.20;74.80;;;;;;5040311;28;20423;-63
2023/06/17 00:05:14;;;;;;;12.65;9.00;;;14.20;74.80;;;;;;5043428;28;20079;-65
2023/06/17 00:07:41;;;;;;;16.33;10.27;;;14.30;75.10;;;;;;5034878;28;20061;-64
2023/06/17 00:10:07;;;;;;;18.05;10.88;;;14.40;75.40;;;;;;5044267;28;20109;-64
2023/06/17 00:12:33;;;;;;;16.33;9.77;;;14.50;75.60;;;;;;5035812;28;20135;-64
2023/06/17 00:15:01;;;;;;;15.13;10.48;;;14.60;75.80;;;;;;5044475;28;20037;-64
2023/06/17 00:17:30;;;;;;;16.15;10.52;;;14.60;76.10;;;;;;5045057;28;20048;-64
2023/06/17 00:19:56;;;;;;;13.00;9.70;;;14.70;76.40;;;;;;5041512;28;20119;-64
2023/06/17 00:22:26;;;;;;;15.45;9.88;;;14.70;76.40;;;;;;5042922;28;20037;-65
2023/06/17 00:24:52;;;;;;;14.07;10.17;;;14.90;76.50;;;;;;5040506;28;20041;-64
2023/06/17 00:27:17;;;;;;;12.85;9.95;;;14.90;76.50;;;;;;5043149;28;20349;-65
2023/06/17 00:29:43;;;;;;;16.00;9.45;;;15.00;76.50;;;;;;5026384;28;20033;-64
2023/06/17 00:32:08;;;;;;;17.15;9.55;;;15.00;76.60;;;;;;5040794;28;20045;-64
2023/06/17 00:34:34;;;;;;;12.70;9.90;;;15.10;76.60;;;;;;5045507;28;20428;-64
2023/06/17 00:37:00;;;;;;;18.80;10.98;;;15.20;76.60;;;;;;5041751;28;20033;-65
2023/06/17 00:39:26;;;;;;;15.70;10.05;;;15.20;76.80;;;;;;5045571;28;20136;-64
2023/06/17 00:41:51;;;;;;;17.73;9.77;;;15.30;76.80;;;;;;5045272;28;20041;-64
2023/06/17 00:44:17;;;;;;;15.00;10.30;;;15.40;76.70;;;;;;5041327;28;20148;-64
2023/06/17 00:46:48;;;;;;;18.08;11.38;;;15.40;77.40;;;;;;5042640;28;20129;-65
2023/06/17 00:49:14;;;;;;;16.50;11.75;;;15.50;77.00;;;;;;5042268;28;20037;-64
2023/06/17 00:51:39;;;;;;;17.92;12.57;;;15.50;76.90;;;;;;5041704;28;20338;-65
2023/06/17 00:54:07;;;;;;;20.52;12.13;;;15.60;76.90;;;;;;5024325;28;20435;-64
2023/06/17 00:56:34;;;;;;;16.65;11.80;;;15.60;76.90;;;;;;5042417;28;20037;-64
2023/06/17 00:59:01;;;;;;;18.70;11.50;;;15.70;77.00;;;;;;5043180;28;20471;-64
2023/06/17 01:01:29;;;;;;;17.20;12.00;;;15.70;77.00;;;;;;5034225;28;20050;-64
2023/06/17 01:03:55;;;;;;;18.40;11.70;;;15.70;77.20;;;;;;5040193;28;20037;-65
2023/06/17 01:06:42;;;;;;;17.40;10.93;;;15.70;77.30;;;;;;5039137;28;20056;-65
2023/06/17 01:09:13;;;;;;;20.15;14.13;;;15.80;78.70;;;;;;5026159;28;20480;-65
2023/06/17 01:11:41;;;;;;;23.73;13.00;;;15.80;77.30;;;;;;5044441;28;20072;-66
2023/06/17 01:14:09;;;;;;;22.50;14.30;;;15.80;77.30;;;;;;5040661;28;20583;-65
2023/06/17 01:16:42;;;;;;;19.20;13.25;;;15.90;77.50;;;;;;5036285;28;20079;-65
2023/06/17 01:19:20;;;;;;;24.10;13.43;;;15.90;77.60;;;;;;5048306;28;20128;-65
2023/06/17 01:21:51;;;;;;;20.35;12.80;;;15.90;78.30;;;;;;5038615;28;20041;-66
2023/06/17 01:24:28;;;;;;;23.38;14.25;;;15.90;77.60;;;;;;5041357;28;20045;-64
2023/06/17 01:27:00;;;;;;;23.13;14.68;;;15.80;78.90;;;;;;5045752;28;20040;-65
2023/06/17 01:29:30;;;;;;;19.52;13.57;;;15.80;78.20;;;;;;5043543;28;20236;-65
2023/06/17 01:31:59;;;;;;;21.55;14.85;;;15.90;78.40;;;;;;5044959;28;20238;-65
2023/06/17 01:34:39;;;;;;;22.77;15.15;;;15.90;78.00;;;;;;5046453;28;20500;-65
2023/06/17 01:37:11;;;;;;;24.70;14.55;;;15.90;78.90;;;;;;5043500;28;20495;-64
2023/06/17 01:39:39;;;;;;;24.65;14.20;;;15.80;79.00;;;;;;5047383;28;20117;-65
2023/06/17 01:42:11;;;;;;;24.08;13.68;;;15.80;78.50;;;;;;5045402;28;20052;-67
2023/06/17 01:44:39;;;;;;;25.63;14.27;;;15.90;78.60;;;;;;5047860;28;20124;-65
2023/06/17 01:47:05;;;;;;;24.52;14.45;;;15.90;78.40;;;;;;5046624;28;20041;-64
2023/06/17 01:49:30;;;;;;;24.48;15.27;;;15.90;78.30;;;;;;5048897;28;20040;-65
2023/06/17 01:51:56;;;;;;;22.10;14.98;;;15.90;78.50;;;;;;5047726;28;20501;-65
2023/06/17 01:54:21;;;;;;;28.02;14.95;;;15.80;78.60;;;;;;5046965;28;20123;-64
2023/06/17 01:56:47;;;;;;;20.10;14.02;;;15.90;78.80;;;;;;5045544;28;20093;-65
2023/06/17 01:59:12;;;;;;;22.60;14.52;;;15.90;79.00;;;;;;5046821;28;20457;-66
2023/06/17 02:01:38;;;;;;;24.27;15.65;;;15.80;79.00;;;;;;5043552;28;20091;-65
2023/06/17 02:04:04;;;;;;;24.73;14.57;;;15.90;79.10;;;;;;5047410;28;20049;-65
2023/06/17 02:06:29;;;;;;;24.55;14.07;;;15.80;79.20;;;;;;5041916;28;20044;-65
2023/06/17 02:08:55;;;;;;;24.52;14.80;;;15.80;79.30;;;;;;5044564;28;20064;-66
2023/06/17 02:11:21;;;;;;;23.98;15.20;;;15.80;79.30;;;;;;5042231;28;20040;-65
2023/06/17 02:13:46;;;;;;;22.95;14.00;;;15.90;79.40;;;;;;5043526;28;20040;-65
2023/06/17 02:16:12;;;;;;;22.08;15.48;;;15.80;79.40;;;;;;5066021;28;20036;-65
2023/06/17 02:18:39;;;;;;;24.63;15.38;;;15.90;79.40;;;;;;5043943;28;20045;-65
2023/06/17 02:21:05;;;;;;;25.60;16.70;;;15.90;79.50;;;;;;5047839;28;20558;-65
2023/06/17 02:23:30;;;;;;;30.52;16.75;;;15.80;80.00;;;;;;5043183;28;20112;-65
2023/06/17 02:25:57;;;;;;;24.95;15.45;;;15.80;80.10;;;;;;5043879;28;20122;-65
2023/06/17 02:28:22;;;;;;;24.52;16.17;;;15.80;80.10;;;;;;5039890;28;20183;-65
2023/06/17 02:30:48;;;;;;;24.50;15.23;;;15.80;80.10;;;;;;5041621;28;20418;-65
2023/06/17 02:33:17;;;;;;;26.13;16.50;;;15.80;80.10;;;;;;5046066;28;20053;-65
2023/06/17 02:35:44;;;;;;;29.80;16.83;;;15.80;80.20;;;;;;5027476;28;20146;-65
2023/06/17 02:38:10;;;;;;;24.10;15.52;;;15.80;80.10;;;;;;5048081;28;20127;-65
2023/06/17 02:40:36;;;;;;;21.85;15.23;;;15.80;80.30;;;;;;5037119;28;20532;-65
2023/06/17 02:43:01;;;;;;;23.17;15.15;;;15.80;80.30;;;;;;5041392;28;20185;-64
2023/06/17 02:45:27;;;;;;;26.33;15.18;;;15.80;80.30;;;;;;5042176;28;20040;-65
2023/06/17 02:47:53;;;;;;;26.70;16.40;;;15.80;80.30;;;;;;5044539;28;20074;-65
2023/06/17 02:50:23;;;;;;;23.35;14.50;;;15.80;80.20;;;;;;5044640;28;20140;-66
2023/06/17 02:52:55;;;;;;;31.15;15.32;;;15.70;80.60;;;;;;5044398;28;20951;-65
2023/06/17 02:55:22;;;;;;;25.98;16.63;;;15.80;80.30;;;;;;5042837;28;20056;-65
2023/06/17 02:57:48;;;;;;;22.92;15.77;;;15.80;80.40;;;;;;5047907;28;20058;-66
2023/06/17 03:00:14;;;;;;;24.92;15.68;;;15.70;80.50;;;;;;5040826;28;20037;-65
2023/06/17 03:02:39;;;;;;;25.40;15.85;;;15.70;80.70;;;;;;5045518;28;20037;-64
2023/06/17 03:05:06;;;;;;;21.63;15.15;;;15.70;80.90;;;;;;5046859;28;20048;-65
2023/06/17 03:07:35;;;;;;;22.77;14.77;;;15.70;81.00;;;;;;5043687;28;20072;-66
2023/06/17 03:10:04;;;;;;;26.15;14.75;;;15.70;81.20;;;;;;5042980;28;20148;-65
2023/06/17 03:12:30;;;;;;;23.63;15.32;;;15.70;81.10;;;;;;5043289;28;20040;-65
2023/06/17 03:14:57;;;;;;;24.60;15.18;;;15.70;80.90;;;;;;5045105;28;20040;-65
2023/06/17 03:17:24;;;;;;;26.88;16.40;;;15.70;81.00;;;;;;5041351;28;20048;-65
2023/06/17 03:19:50;;;;;;;24.88;15.52;;;15.70;81.00;;;;;;5045617;28;20033;-66
2023/06/17 03:22:15;;;;;;;23.20;14.90;;;15.70;81.10;;;;;;5041901;28;20161;-65
2023/06/17 03:24:41;;;;;;;24.50;15.73;;;15.70;81.00;;;;;;5045094;28;20041;-65
2023/06/17 03:27:07;;;;;;;28.80;16.52;;;15.80;81.10;;;;;;5025429;28;20071;-65
2023/06/17 03:29:35;;;;;;;26.38;16.45;;;15.80;80.90;;;;;;5022786;28;20063;-65
2023/06/17 03:32:00;;;;;;;26.05;16.27;;;15.70;81.00;;;;;;5040382;28;20084;-65
2023/06/17 03:34:26;;;;;;;28.35;17.35;;;15.80;81.00;;;;;;5043502;28;20068;-65
2023/06/17 03:36:52;;;;;;;27.30;16.10;;;15.70;81.60;;;;;;5031163;28;20079;-65
2023/06/17 03:39:17;;;;;;;30.33;17.25;;;15.70;81.20;;;;;;5028116;28;20512;-65
2023/06/17 03:41:43;;;;;;;25.83;16.90;;;15.70;81.20;;;;;;5044296;28;20631;-65
2023/06/17 03:44:09;;;;;;;25.13;16.17;;;15.70;81.20;;;;;;5044959;28;20033;-66
2023/06/17 03:46:35;;;;;;;27.65;15.90;;;15.80;81.10;;;;;;5044776;28;20044;-65
2023/06/17 03:49:00;;;;;;;30.13;16.42;;;15.80;81.10;;;;;;5040444;28;20055;-65
2023/06/17 03:51:26;;;;;;;23.08;15.88;;;15.80;80.90;;;;;;5043263;28;20064;-65
2023/06/17 03:53:51;;;;;;;27.02;16.20;;;15.70;81.10;;;;;;5045358;28;20419;-65
2023/06/17 03:56:17;;;;;;;26.60;16.85;;;15.80;81.00;;;;;;5046539;28;20508;-65
2023/06/17 03:58:42;;;;;;;26.65;16.73;;;15.70;80.90;;;;;;5043339;28;20119;-67
2023/06/17 04:01:12;;;;;;;28.48;16.55;;;15.80;80.90;;;;;;5045795;28;20150;-65
2023/06/17 04:03:38;;;;;;;25.58;16.08;;;15.70;80.70;;;;;;5043242;28;20098;-65
2023/06/17 04:06:04;;;;;;;27.58;15.45;;;15.80;80.80;;;;;;5024761;28;20045;-65
2023/06/17 04:08:32;;;;;;;26.70;17.83;;;15.80;80.80;;;;;;5041554;28;20040;-65
2023/06/17 04:10:58;;;;;;;27.52;16.70;;;15.80;80.70;;;;;;5044897;28;20142;-65
2023/06/17 04:13:24;;;;;;;25.92;16.92;;;15.80;80.70;;;;;;5047248;28;20570;-65
2023/06/17 04:15:50;;;;;;;26.63;16.77;;;15.80;80.60;;;;;;5042576;28;20084;-65
2023/06/17 04:18:15;;;;;;;26.27;15.82;;;15.90;80.70;;;;;;5028732;28;20506;-65
2023/06/17 04:20:41;;;;;;;26.70;16.60;;;15.80;80.60;;;;;;5039840;28;20059;-65
2023/06/17 04:23:07;;;;;;;27.55;16.90;;;15.90;80.60;;;;;;5041737;28;20500;-66
2023/06/17 04:25:32;;;;;;;30.73;16.75;;;15.90;80.70;;;;;;5041304;28;20056;-65
2023/06/17 04:28:01;;;;;;;27.95;17.20;;;15.90;81.00;;;;;;5037598;28;20037;-66
2023/06/17 04:30:27;;;;;;;28.67;16.52;;;15.90;80.90;;;;;;5045600;28;20053;-65
2023/06/17 04:32:55;;;;;;;26.52;15.10;;;15.90;80.60;;;;;;5045170;28;20033;-66
2023/06/17 04:35:21;;;;;;;25.95;16.73;;;15.90;80.40;;;;;;5045357;28;20045;-65
2023/06/17 04:37:53;;;;;;;26.13;16.45;;;15.90;80.60;;;;;;5042313;28;20191;-65
2023/06/17 04:40:19;;;;;;;32.33;17.15;;;15.80;80.80;;;;;;5046206;28;20126;-65
2023/06/17 04:42:46;;;;;;;30.48;17.75;;;15.90;80.70;;;;;;5043251;28;20116;-65
2023/06/17 04:45:11;;;;;;;28.77;18.15;;;15.80;80.70;;;;;;5043453;28;20045;-65
2023/06/17 04:47:37;;;;;;;29.38;16.60;;;15.90;80.80;;;;;;5035353;28;20045;-66
2023/06/17 04:50:03;;;;;;;27.48;17.13;;;15.80;81.60;;;;;;5038784;28;20051;-66
2023/06/17 04:52:30;;;;;;;28.27;17.52;;;15.80;81.20;;;;;;5040800;28;20127;-66
2023/06/17 04:54:56;;;;;;;28.00;17.10;;;15.80;81.00;;;;;;5046849;28;20590;-66
2023/06/17 04:57:21;;;;;;;29.45;18.15;;;15.90;80.90;;;;;;5071524;28;20135;-66
2023/06/17 04:59:47;;;;;;;25.08;17.20;;;15.80;80.80;;;;;;5026674;28;20041;-65
2023/06/17 05:02:13;;;;;;;26.48;17.40;;;15.90;80.70;;;;;;5041309;28;20037;-66
2023/06/17 05:04:39;;;;;;;27.65;18.20;;;15.80;80.90;;;;;;5040886;28;20041;-66
2023/06/17 05:07:04;;;;;;;28.52;17.70;;;15.90;80.60;;;;;;5046143;28;20082;-66
2023/06/17 05:09:30;;;;;;;24.85;16.40;;;16.00;80.50;;;;;;5029715;28;20094;-66
2023/06/17 05:11:56;;;;;;;29.65;18.17;;;15.90;80.60;;;;;;5041558;28;20040;-67
2023/06/17 05:14:21;;;;;;;31.88;19.02;;;15.90;80.50;;;;;;5015872;28;20040;-66
2023/06/17 05:16:47;;;;;;;31.20;18.13;;;16.00;80.50;;;;;;5043906;28;20507;-65
2023/06/17 05:19:12;;;;;;;28.63;17.08;;;16.00;80.20;;;;;;5042625;28;20645;-66
2023/06/17 05:21:38;;;;;;;29.70;17.88;;;16.00;80.30;;;;;;5039415;28;20500;-65
2023/06/17 05:24:04;;;;;;;27.73;17.27;;;16.10;80.50;;;;;;5038211;28;20124;-65
2023/06/17 05:26:30;;;;;;;32.70;19.27;;;16.10;80.30;;;;;;5037754;28;20067;-66
2023/06/17 05:28:55;;;;;;;25.02;16.80;;;16.10;80.30;;;;;;5039974;28;20085;-66
2023/06/17 05:31:21;;;;;;;27.95;17.42;;;16.10;80.20;;;;;;5039113;28;20059;-65
2023/06/17 05:33:46;;;;;;;26.88;18.20;;;16.10;80.00;;;;;;5048496;28;20415;-66
2023/06/17 05:36:12;;;;;;;27.30;17.05;;;16.10;80.00;;;;;;5039521;28;20051;-66
2023/06/17 05:38:38;;;;;;;27.63;17.15;;;16.20;79.80;;;;;;5020993;28;20056;-65
2023/06/17 05:41:03;;;;;;;25.20;16.67;;;16.20;79.80;;;;;;5040143;28;20045;-65
2023/06/17 05:43:29;;;;;;;23.65;15.98;;;16.30;79.50;;;;;;5032089;28;20065;-65
2023/06/17 05:45:54;;;;;;;25.10;17.30;;;16.30;79.40;;;;;;5042650;28;20497;-65
2023/06/17 05:48:20;;;;;;;25.98;15.95;;;16.30;79.30;;;;;;5039147;28;20091;-65
2023/06/17 05:50:46;;;;;;;22.45;16.42;;;16.40;79.30;;;;;;5040125;28;20037;-65
2023/06/17 05:53:11;;;;;;;21.58;15.18;;;16.40;79.30;;;;;;5041246;28;20109;-65
2023/06/17 05:55:37;;;;;;;26.02;15.88;;;16.40;79.20;;;;;;5044853;28;20124;-66
2023/06/17 05:58:02;;;;;;;29.08;16.95;;;16.50;79.00;;;;;;5047700;28;20037;-65
2023/06/17 06:00:28;;;;;;;24.17;15.90;;;16.50;78.80;;;;;;5042297;28;20128;-66
2023/06/17 06:02:53;;;;;;;23.90;15.88;;;16.50;78.70;;;;;;5044617;28;20029;-66
2023/06/17 06:05:19;;;;;;;27.25;17.60;;;16.60;78.70;;;;;;5039288;28;20049;-66
2023/06/17 06:07:45;;;;;;;24.60;16.52;;;16.60;78.50;;;;;;5021801;28;20132;-65
2023/06/17 06:10:12;;;;;;;21.52;15.35;;;16.60;78.60;;;;;;5023644;28;20033;-65
2023/06/17 06:12:38;;;;;;;22.05;15.50;;;16.60;78.50;;;;;;5036946;28;20099;-66
2023/06/17 06:15:04;;;;;;;24.27;15.93;;;16.70;78.30;;;;;;5032104;28;20041;-66
2023/06/17 06:17:30;;;;;;;24.25;15.98;;;16.70;78.20;;;;;;5036062;28;20037;-66
2023/06/17 06:19:56;;;;;;;22.92;14.80;;;16.60;78.10;;;;;;5028604;28;20170;-66
2023/06/17 06:22:22;;;;;;;20.50;14.75;;;16.60;78.30;;;;;;5039086;28;20048;-66
2023/06/17 06:24:47;;;;;;;31.45;16.30;;;16.70;78.80;;;;;;5046067;28;20125;-66
2023/06/17 06:27:13;;;;;;;20.45;15.18;;;16.70;77.90;;;;;;5044295;28;20021;-65
2023/06/17 06:29:39;;;;;;;21.98;15.35;;;16.80;77.60;;;;;;5048713;28;20052;-66
2023/06/17 06:32:05;;;;;;;22.67;14.98;;;16.90;77.40;;;;;;5048617;28;20115;-66
2023/06/17 06:34:30;;;;;;;21.65;14.60;;;17.00;77.20;;;;;;5048487;28;20127;-65
2023/06/17 06:36:58;;;;;;;23.63;14.10;;;17.00;77.00;;;;;;5046831;28;20076;-65
2023/06/17 06:39:24;;;;;;;23.88;14.48;;;17.00;76.90;;;;;;5050174;28;20124;-65
2023/06/17 06:41:49;;;;;;;20.75;14.50;;;17.00;76.90;;;;;;5049052;28;20120;-65
2023/06/17 06:44:16;;;;;;;21.55;13.05;;;17.10;76.60;;;;;;5048672;28;20117;-65
2023/06/17 06:46:41;;;;;;;21.80;13.75;;;17.20;76.20;;;;;;5049788;28;20635;-65
2023/06/17 06:49:07;;;;;;;21.10;14.00;;;17.20;76.20;;;;;;5048572;28;20088;-66
2023/06/17 06:51:33;;;;;;;22.33;13.93;;;17.20;76.10;;;;;;5046891;28;20823;-66
2023/06/17 06:53:58;;;;;;;20.08;13.32;;;17.30;75.80;;;;;;5045253;28;20045;-66
2023/06/17 06:56:24;;;;;;;21.95;14.35;;;17.40;75.60;;;;;;5049131;28;20567;-65
2023/06/17 06:58:50;;;;;;;21.00;14.25;;;17.50;75.30;;;;;;5027723;28;20539;-66
2023/06/17 07:01:15;;;;;;;20.00;14.00;;;17.50;75.10;;;;;;5045312;28;20091;-66
2023/06/17 07:03:41;;;;;;;21.42;13.40;;;17.50;75.00;;;;;;5044751;28;20041;-66
2023/06/17 07:06:07;;;;;;;21.30;14.57;;;17.50;74.80;;;;;;5043712;28;20037;-66
2023/06/17 07:08:33;;;;;;;22.17;14.57;;;17.50;74.40;;;;;;5041609;28;20401;-66
2023/06/17 07:10:59;;;;;;;22.30;15.55;;;17.60;74.30;;;;;;5039014;28;20048;-65
2023/06/17 07:13:24;;;;;;;19.65;13.60;;;17.60;74.20;;;;;;5047189;28;20044;-65
2023/06/17 07:15:50;;;;;;;20.90;13.68;;;17.70;73.90;;;;;;5043703;28;20052;-66
2023/06/17 07:18:15;;;;;;;22.55;14.70;;;17.70;73.70;;;;;;5047155;28;20075;-66
2023/06/17 07:20:41;;;;;;;21.63;14.45;;;17.70;73.60;;;;;;5047494;28;20750;-66
2023/06/17 07:23:06;;;;;;;19.65;13.38;;;17.80;73.40;;;;;;5044953;28;20472;-66
2023/06/17 07:25:32;;;;;;;22.17;14.57;;;17.60;73.40;;;;;;5044223;28;20049;-66
2023/06/17 07:27:59;;;;;;;22.67;14.38;;;17.70;73.10;;;;;;5045746;28;20150;-65
2023/06/17 07:30:26;;;;;;;22.30;13.82;;;17.80;73.10;;;;;;5042686;28;20033;-65
2023/06/17 07:32:52;;;;;;;23.80;14.77;;;17.90;72.70;;;;;;5039893;28;20052;-66
2023/06/17 07:35:17;;;;;;;26.55;14.80;;;18.00;72.60;;;;;;5042177;28;20048;-66
2023/06/17 07:37:43;;;;;;;18.77;12.50;;;18.10;72.30;;;;;;5044560;28;20059;-66
2023/06/17 07:40:10;;;;;;;18.38;13.60;;;18.30;71.90;;;;;;5046423;28;20059;-66
2023/06/17 07:42:37;;;;;;;18.52;12.45;;;18.50;71.40;;;;;;5044651;28;20163;-66
2023/06/17 07:45:04;;;;;;;18.88;12.95;;;18.60;70.80;;;;;;5047239;28;20040;-66
2023/06/17 07:47:30;;;;;;;19.55;12.55;;;18.70;70.40;;;;;;5044607;28;20049;-66
2023/06/17 07:49:56;;;;;;;18.50;12.00;;;18.90;69.80;;;;;;5044514;28;20084;-66
2023/06/17 07:52:21;;;;;;;18.70;13.40;;;19.00;69.60;;;;;;5045607;28;20468;-66
2023/06/17 07:54:47;;;;;;;17.70;11.88;;;19.10;69.20;;;;;;5044972;28;20048;-67
2023/06/17 07:57:13;;;;;;;18.92;11.85;;;19.30;69.00;;;;;;5047688;28;20519;-66
2023/06/17 07:59:41;;;;;;;17.42;12.65;;;19.60;68.50;;;;;;5043982;28;20127;-66
2023/06/17 08:02:06;;;;;;;17.80;13.00;;;19.70;68.30;;;;;;5044671;28;20056;-66
2023/06/17 08:04:32;;;;;;;16.33;12.27;;;19.70;67.80;;;;;;5047406;28;20336;-66
2023/06/17 08:06:58;;;;;;;13.32;11.35;;;19.80;67.90;;;;;;5044338;28;20060;-66
2023/06/17 08:09:23;;;;;;;19.55;12.68;;;20.00;67.40;;;;;;5046246;28;20043;-67
2023/06/17 08:11:49;;;;;;;20.52;12.20;;;20.60;66.60;;;;;;5027944;28;20037;-67
2023/06/17 08:14:15;;;;;;;16.13;11.57;;;20.70;65.90;;;;;;5046353;28;20044;-67
2023/06/17 08:16:45;;;;;;;16.23;11.48;;;20.60;65.50;;;;;;5046821;28;20103;-67
2023/06/17 08:19:12;;;;;;;16.48;10.55;;;20.70;65.10;;;;;;5046186;28;20412;-67
2023/06/17 08:21:38;;;;;;;16.25;10.68;;;20.50;65.60;;;;;;5024103;28;20937;-67
2023/06/17 08:24:21;;;;;;;19.10;11.80;;;20.50;65.30;;;;;;5041849;28;20033;-67
2023/06/17 08:26:47;;;;;;;16.33;10.43;;;21.00;62.80;;;;;;5036046;28;20045;-67
2023/06/17 08:29:13;;;;;;;13.98;9.82;;;21.50;63.70;;;;;;5035904;28;20067;-67
2023/06/17 08:31:43;;;;;;;14.10;10.32;;;22.10;62.50;;;;;;5035825;28;20460;-68
2023/06/17 08:34:09;;;;;;;16.25;11.48;;;22.70;61.70;;;;;;5047303;28;20048;-68
2023/06/17 08:36:37;;;;;;;15.07;10.13;;;22.90;61.10;;;;;;5047820;28;20106;-67
2023/06/17 08:39:02;;;;;;;15.93;10.05;;;23.00;59.90;;;;;;5048015;28;20040;-68
2023/06/17 08:41:28;;;;;;;12.35;9.07;;;22.80;59.10;;;;;;5049036;28;20041;-67
2023/06/17 08:44:01;;;;;;;14.38;9.98;;;23.30;58.30;;;;;;5045526;28;20461;-68
2023/06/17 08:46:27;;;;;;;14.20;9.10;;;23.70;54.00;;;;;;5044378;28;20150;-68
2023/06/17 08:48:54;;;;;;;11.88;8.77;;;24.00;56.10;;;;;;5044685;28;20045;-68
2023/06/17 08:51:20;;;;;;;11.15;9.75;;;24.30;55.70;;;;;;5044367;28;20090;-68
2023/06/17 08:53:47;;;;;;;14.90;10.45;;;24.40;55.00;;;;;;5043434;28;20461;-68
2023/06/17 08:56:13;;;;;;;12.35;9.32;;;25.00;53.20;;;;;;5046233;28;20037;-68
2023/06/17 08:58:39;;;;;;;11.15;8.23;;;25.20;53.10;;;;;;5042615;28;20094;-69
2023/06/17 09:01:05;;;;;;;12.90;8.82;;;25.80;51.50;;;;;;5044794;28;20049;-69
2023/06/17 09:03:36;;;;;;;9.38;7.80;;;26.10;50.20;;;;;;5044385;28;20048;-69
2023/06/17 09:06:03;;;;;;;10.80;8.50;;;26.70;48.80;;;;;;5045209;28;20120;-70
2023/06/17 09:08:30;;;;;;;11.80;8.57;;;26.90;48.40;;;;;;5043400;28;20040;-69
2023/06/17 09:11:04;;;;;;;13.95;9.20;;;27.50;46.50;;;;;;5041364;28;20041;-70
2023/06/17 09:13:30;;;;;;;9.98;7.53;;;27.50;44.70;;;;;;5047010;28;20103;-69
2023/06/17 09:15:56;;;;;;;10.77;8.23;;;27.90;45.30;;;;;;5046347;28;20633;-70
2023/06/17 09:18:22;;;;;;;11.30;8.27;;;28.10;44.10;;;;;;5042125;28;20478;-70
2023/06/17 09:20:55;;;;;;;10.55;8.35;;;28.10;43.50;;;;;;5043256;28;20064;-70
2023/06/17 09:23:23;;;;;;;8.77;7.80;;;28.30;42.30;;;;;;5043662;28;20767;-70
2023/06/17 09:25:58;;;;;;;14.88;8.85;;;28.70;42.00;;;;;;5045311;28;20051;-70
2023/06/17 09:28:25;;;;;;;11.30;8.30;;;29.20;41.60;;;;;;5044305;28;20112;-69
2023/06/17 09:30:53;;;;;;;12.07;8.50;;;29.60;40.70;;;;;;5042832;28;20108;-69
2023/06/17 09:33:20;;;;;;;10.88;7.97;;;29.90;39.30;;;;;;5038502;28;20036;-70
2023/06/17 09:35:47;;;;;;;13.27;8.40;;;30.20;38.40;;;;;;5043345;28;20653;-69
2023/06/17 09:38:17;;;;;;;9.05;7.10;;;30.40;38.20;;;;;;5058413;28;20106;-71
2023/06/17 09:40:42;;;;;;;12.20;7.97;;;30.40;37.30;;;;;;5045301;28;20045;-70
2023/06/17 09:43:11;;;;;;;8.20;7.20;;;30.60;38.10;;;;;;5045549;28;20045;-71
2023/06/17 09:45:40;;;;;;;10.57;7.90;;;30.90;37.70;;;;;;5047412;28;20114;-71
2023/06/17 09:48:09;;;;;;;8.27;7.20;;;31.10;37.20;;;;;;5049083;28;20665;-71
2023/06/17 09:50:36;;;;;;;12.23;7.90;;;31.60;36.30;;;;;;5050303;28;20044;-71
2023/06/17 09:53:02;;;;;;;11.35;7.57;;;31.90;34.90;;;;;;5028234;28;20490;-70
2023/06/17 09:55:29;;;;;;;13.82;7.45;;;32.10;34.00;;;;;;5047597;28;20040;-71
2023/06/17 09:57:55;;;;;;;8.82;6.70;;;32.50;33.60;;;;;;5030113;28;20041;-71
2023/06/17 10:00:25;;;;;;;10.02;7.88;;;32.40;33.40;;;;;;5047080;28;20044;-70
2023/06/17 10:02:53;;;;;;;8.45;7.03;;;32.60;32.40;;;;;;5044610;28;20060;-70
2023/06/17 10:05:23;;;;;;;9.27;6.60;;;32.40;31.90;;;;;;5048091;28;20044;-70
2023/06/17 10:07:51;;;;;;;7.32;6.22;;;32.60;31.90;;;;;;5030910;28;20033;-71
2023/06/17 10:10:18;;;;;;;9.43;6.13;;;33.20;31.20;;;;;;5046199;28;20052;-71
2023/06/17 10:12:46;;;;;;;8.45;7.28;;;33.80;30.50;;;;;;5039306;28;20037;-71
2023/06/17 10:15:13;;;;;;;8.55;5.85;;;34.00;29.40;;;;;;5051376;28;20072;-70
2023/06/17 10:17:41;;;;;;;9.10;6.55;;;33.90;29.40;;;;;;5020266;28;20045;-71
2023/06/17 10:20:08;;;;;;;8.43;6.60;;;34.40;29.30;;;;;;5044695;28;20049;-72
2023/06/17 10:22:37;;;;;;;7.57;6.75;;;34.80;29.10;;;;;;5043398;28;20037;-72
2023/06/17 10:25:05;;;;;;;9.03;5.90;;;34.80;28.10;;;;;;5049281;28;20072;-70
2023/06/17 10:27:31;;;;;;;7.80;6.93;;;34.90;28.40;;;;;;5041114;28;20072;-71
2023/06/17 10:29:58;;;;;;;10.13;6.40;;;35.40;27.80;;;;;;5047389;28;20081;-70
2023/06/17 10:32:24;;;;;;;7.82;5.30;;;35.20;27.70;;;;;;5045753;28;20075;-71
2023/06/17 10:35:05;;;;;;;9.30;5.20;;;35.20;27.40;;;;;;5051488;28;20078;-70
2023/06/17 10:37:32;;;;;;;7.63;6.15;;;35.70;26.70;;;;;;5041632;28;20730;-72
2023/06/17 10:40:22;;;;;;;7.45;5.75;;;36.00;27.00;;;;;;5047496;28;20037;-72
2023/06/17 10:43:00;;;;;;;8.13;6.25;;;36.00;27.00;;;;;;5036732;28;20063;-72
2023/06/17 10:45:29;;;;;;;7.55;5.60;;;36.60;26.40;;;;;;5047636;28;20040;-71
2023/06/17 10:48:17;;;;;;;6.53;5.67;;;36.50;26.50;;;;;;5044046;28;20116;-71
2023/06/17 10:50:46;;;;;;;8.15;5.57;;;36.30;25.90;;;;;;5046963;28;20323;-71
2023/06/17 10:53:16;;;;;;;8.53;5.73;;;36.10;26.50;;;;;;5043410;28;20048;-72
2023/06/17 10:55:42;;;;;;;10.15;6.43;;;36.00;26.50;;;;;;5028632;28;20036;-71
2023/06/17 10:58:08;;;;;;;6.53;5.53;;;35.50;26.80;;;;;;5036522;28;20126;-72
2023/06/17 11:00:33;;;;;;;7.68;5.53;;;34.50;27.70;;;;;;5047683;28;20075;-72
2023/06/17 11:02:59;;;;;;;6.10;5.50;;;33.70;28.30;;;;;;5044870;28;20048;-71
2023/06/17 11:05:25;;;;;;;8.73;5.75;;;33.00;29.30;;;;;;5048170;28;20037;-71
2023/06/17 11:07:50;;;;;;;6.80;6.10;;;32.10;30.30;;;;;;5045725;28;20156;-70
2023/06/17 11:10:17;;;;;;;6.88;6.18;;;31.50;30.70;;;;;;5047230;28;20095;-71
2023/06/17 11:12:46;;;;;;;6.07;5.45;;;30.90;31.30;;;;;;5036484;28;20053;-71
2023/06/17 11:15:11;;;;;;;7.00;5.93;;;30.50;31.90;;;;;;5046234;28;20076;-70
2023/06/17 11:17:37;;;;;;;7.45;5.88;;;30.30;32.50;;;;;;5047273;28;20562;-71
2023/06/17 11:20:07;;;;;;;7.45;5.57;;;30.20;33.00;;;;;;5048910;28;20039;-71
2023/06/17 11:22:37;;;;;;;7.38;5.53;;;30.00;33.70;;;;;;5046979;28;20085;-71
2023/06/17 11:25:03;;;;;;;8.77;6.18;;;29.90;33.90;;;;;;5027363;28;20059;-69
2023/06/17 11:27:29;;;;;;;8.73;5.70;;;29.70;33.20;;;;;;5048463;28;20033;-70
2023/06/17 11:29:55;;;;;;;6.18;5.18;;;29.50;33.50;;;;;;5046217;28;20605;-70
2023/06/17 11:32:20;;;;;;;6.65;5.95;;;29.30;33.70;;;;;;5043674;28;20049;-70
2023/06/17 11:34:46;;;;;;;6.95;5.72;;;29.50;34.10;;;;;;5048468;28;20082;-70
2023/06/17 11:37:12;;;;;;;6.57;5.32;;;29.40;34.20;;;;;;5044891;28;20045;-71
2023/06/17 11:39:38;;;;;;;7.00;5.50;;;29.40;34.20;;;;;;5030456;28;20044;-69
2023/06/17 11:42:04;;;;;;;7.32;5.90;;;29.20;34.10;;;;;;5046922;28;20063;-69
2023/06/17 11:44:31;;;;;;;7.47;5.32;;;29.40;34.00;;;;;;5041880;28;20934;-70
2023/06/17 11:47:03;;;;;;;8.02;5.88;;;29.30;34.00;;;;;;5048501;28;20041;-70
2023/06/17 11:49:29;;;;;;;7.07;6.05;;;29.40;33.80;;;;;;5046733;28;20037;-71
2023/06/17 11:52:00;;;;;;;8.02;5.45;;;29.40;33.80;;;;;;5043662;28;20445;-69
2023/06/17 11:54:26;;;;;;;9.20;6.25;;;29.50;33.80;;;;;;5030127;28;20059;-70
2023/06/17 11:56:53;;;;;;;7.10;5.65;;;29.40;34.10;;;;;;5043959;28;20060;-70
2023/06/17 11:59:19;;;;;;;8.27;5.50;;;29.50;34.00;;;;;;5046667;28;20072;-70
2023/06/17 12:01:45;;;;;;;6.53;5.65;;;29.30;34.00;;;;;;5033312;28;20067;-70
2023/06/17 12:04:12;;;;;;;9.88;6.20;;;29.60;34.20;;;;;;5028416;28;20060;-70
2023/06/17 12:06:39;;;;;;;8.15;5.97;;;29.70;33.80;;;;;;5025824;28;20051;-70
2023/06/17 12:09:06;;;;;;;9.60;5.60;;;29.60;34.20;;;;;;5026681;28;20030;-70
2023/06/17 12:11:35;;;;;;;8.90;5.95;;;29.90;33.90;;;;;;5027456;28;20049;-69
2023/06/17 12:14:06;;;;;;;6.07;5.13;;;29.90;33.60;;;;;;5027265;28;20496;-70
2023/06/17 12:16:34;;;;;;;8.35;5.57;;;29.90;33.90;;;;;;5041130;28;20067;-68
2023/06/17 12:19:00;;;;;;;6.57;5.60;;;30.10;34.00;;;;;;5047873;28;20074;-70
2023/06/17 12:21:26;;;;;;;6.50;5.15;;;30.30;33.80;;;;;;5045447;28;20078;-70
2023/06/17 12:23:53;;;;;;;7.68;5.80;;;30.70;33.30;;;;;;5047237;28;20094;-70
2023/06/17 12:26:23;;;;;;;7.85;4.85;;;31.80;32.00;;;;;;5046280;28;20136;-71
2023/06/17 12:28:49;;;;;;;8.65;5.57;;;32.90;30.40;;;;;;5047877;28;20483;-71
2023/06/17 12:31:15;;;;;;;5.90;4.72;;;34.50;29.40;;;;;;5046641;28;20239;-71